Time;durP1;ratioP1;P1;durP2;ratioP2;P2;SDS_P1;SDS_P2;PMS_P1;PMS_P2;Temp;Humidity;BMP_temperature;BMP_pressure;BME280_temperature;BME280_humidity;BME280_pressure;Samples;Min_cycle;Max_cycle;Signal;HPM_P1;HPM_P2
2022/06/29 00:00:34;;;;;;;6.38;2.75;;;;;;;;;;5093805;28;20117;-65
2022/06/29 00:03:00;;;;;;;5.32;2.70;;;;;;;;;;5093746;28;20469;-66
2022/06/29 00:05:26;;;;;;;4.10;2.72;;;;;;;;;;5093490;28;20091;-66
2022/06/29 00:07:57;;;;;;;4.72;2.80;;;;;;;;;;5093110;28;20526;-64
2022/06/29 00:10:24;;;;;;;5.55;2.72;;;;;;;;;;5093794;28;20036;-64
2022/06/29 00:12:50;;;;;;;4.10;2.65;;;;;;;;;;5093419;28;20016;-65
2022/06/29 00:15:17;;;;;;;6.13;3.00;;;;;;;;;;5093451;28;20035;-65
2022/06/29 00:17:43;;;;;;;4.40;2.95;;;;;;;;;;5093058;28;20039;-66
2022/06/29 00:20:12;;;;;;;6.25;2.88;;;;;;;;;;5093416;28;20028;-65
2022/06/29 00:22:39;;;;;;;4.38;2.90;;;;;;;;;;5093489;28;20028;-67
2022/06/29 00:25:06;;;;;;;6.20;3.00;;;;;;;;;;5093095;28;20102;-66
2022/06/29 00:27:32;;;;;;;4.70;2.80;;;;;;;;;;5093503;28;20123;-64
2022/06/29 00:29:58;;;;;;;4.28;2.80;;;;;;;;;;5093266;28;20032;-66
2022/06/29 00:32:24;;;;;;;5.40;2.88;;;;;;;;;;5093106;28;20358;-65
2022/06/29 00:34:49;;;;;;;4.38;3.00;;;;;;;;;;5093212;28;20024;-65
2022/06/29 00:37:15;;;;;;;4.80;3.05;;;;;;;;;;5093148;28;20366;-65
2022/06/29 00:39:41;;;;;;;6.60;2.70;;;;;;;;;;5093205;28;20035;-65
2022/06/29 00:42:07;;;;;;;6.47;3.10;;;;;;;;;;5093166;28;20020;-66
2022/06/29 00:44:33;;;;;;;4.70;3.08;;;;;;;;;;5092912;28;20020;-63
2022/06/29 00:47:02;;;;;;;5.25;3.33;;;;;;;;;;5092891;28;20553;-62
2022/06/29 00:49:29;;;;;;;4.60;2.80;;;;;;;;;;5092852;28;20119;-65
2022/06/29 00:52:13;;;;;;;6.97;2.95;;;;;;;;;;5092915;28;20066;-64
2022/06/29 00:54:46;;;;;;;4.05;2.80;;;;;;;;;;5092840;28;20020;-65
2022/06/29 00:57:24;;;;;;;4.88;2.60;;;;;;;;;;5092863;28;20028;-62
2022/06/29 00:59:52;;;;;;;4.75;2.70;;;;;;;;;;5092924;28;20020;-64
2022/06/29 01:02:23;;;;;;;4.07;2.47;;;;;;;;;;5092619;28;20031;-64
2022/06/29 01:04:49;;;;;;;5.10;2.70;;;;;;;;;;5092657;28;20020;-66
2022/06/29 01:07:18;;;;;;;4.95;2.80;;;;;;;;;;5091665;28;20028;-64
2022/06/29 01:09:43;;;;;;;10.63;2.80;;;;;;;;;;5092707;28;20403;-64
2022/06/29 01:12:09;;;;;;;4.15;2.85;;;;;;;;;;5093060;28;20323;-63
2022/06/29 01:14:35;;;;;;;5.13;2.63;;;;;;;;;;5092073;28;20481;-65
2022/06/29 01:17:01;;;;;;;5.30;3.13;;;;;;;;;;5090754;28;20373;-65
2022/06/29 01:19:27;;;;;;;6.80;3.83;;;;;;;;;;5093437;28;20027;-64
2022/06/29 01:21:55;;;;;;;4.85;2.90;;;;;;;;;;5096515;28;20473;-65
2022/06/29 01:24:22;;;;;;;6.30;3.28;;;;;;;;;;5096167;28;20048;-65
2022/06/29 01:26:48;;;;;;;4.70;3.20;;;;;;;;;;5096376;28;20102;-64
2022/06/29 01:29:17;;;;;;;5.95;2.88;;;;;;;;;;5096706;28;20068;-63
2022/06/29 01:31:44;;;;;;;5.63;3.03;;;;;;;;;;5090739;28;20036;-61
2022/06/29 01:34:09;;;;;;;6.63;3.00;;;;;;;;;;5094585;28;20157;-62
2022/06/29 01:36:35;;;;;;;5.80;2.80;;;;;;;;;;5096207;28;20508;-64
2022/06/29 01:39:01;;;;;;;7.05;2.90;;;;;;;;;;5094942;28;20031;-63
2022/06/29 01:41:26;;;;;;;6.82;3.03;;;;;;;;;;5095983;28;20019;-64
2022/06/29 01:43:52;;;;;;;5.95;3.03;;;;;;;;;;5095840;28;20500;-65
2022/06/29 01:46:17;;;;;;;5.43;3.25;;;;;;;;;;5095848;28;20085;-64
2022/06/29 01:48:43;;;;;;;5.88;3.17;;;;;;;;;;5095725;28;20455;-64
2022/06/29 01:51:08;;;;;;;6.57;3.55;;;;;;;;;;5095987;28;20020;-65
2022/06/29 01:53:34;;;;;;;7.35;3.50;;;;;;;;;;5095749;28;20465;-67
2022/06/29 01:55:59;;;;;;;6.68;3.63;;;;;;;;;;5095791;28;20020;-64
2022/06/29 01:58:25;;;;;;;7.95;3.50;;;;;;;;;;5096098;28;20105;-65
2022/06/29 02:00:50;;;;;;;5.78;3.90;;;;;;;;;;5096018;28;20028;-65
2022/06/29 02:03:16;;;;;;;8.07;3.75;;;;;;;;;;5096056;28;20027;-62
2022/06/29 02:05:41;;;;;;;8.55;4.15;;;;;;;;;;5094971;28;20016;-64
2022/06/29 02:08:07;;;;;;;6.57;3.67;;;;;;;;;;5095940;28;20032;-65
2022/06/29 02:10:33;;;;;;;8.88;3.83;;;;;;;;;;5096015;28;20024;-64
2022/06/29 02:12:58;;;;;;;8.52;4.40;;;;;;;;;;5096013;28;20024;-66
2022/06/29 02:15:24;;;;;;;7.30;4.05;;;;;;;;;;5095738;28;20024;-64
2022/06/29 02:17:50;;;;;;;8.70;4.30;;;;;;;;;;5095863;28;20055;-65
2022/06/29 02:20:16;;;;;;;9.45;3.95;;;;;;;;;;5095880;28;20026;-65
2022/06/29 02:22:41;;;;;;;7.88;4.00;;;;;;;;;;5095938;28;20107;-64
2022/06/29 02:25:08;;;;;;;8.52;4.20;;;;;;;;;;5095605;28;20044;-65
2022/06/29 02:27:39;;;;;;;7.03;4.07;;;;;;;;;;5095746;28;20020;-64
2022/06/29 02:30:05;;;;;;;7.78;4.18;;;;;;;;;;5095024;28;20031;-65
2022/06/29 02:35:15;;;;;;;10.00;6.38;;;;;;;;;;5095670;28;20475;-64
2022/06/29 02:37:40;;;;;;;11.88;5.72;;;;;;;;;;5095739;28;20036;-64
2022/06/29 02:40:06;;;;;;;9.73;5.57;;;;;;;;;;5095584;28;20085;-66
2022/06/29 02:42:32;;;;;;;9.43;5.43;;;;;;;;;;5095461;28;20028;-64
2022/06/29 02:44:58;;;;;;;16.98;6.50;;;;;;;;;;5095193;28;20434;-67
2022/06/29 02:47:23;;;;;;;10.85;5.90;;;;;;;;;;5095323;28;20023;-67
2022/06/29 02:49:49;;;;;;;9.82;5.80;;;;;;;;;;5095173;28;20055;-67
2022/06/29 02:52:14;;;;;;;8.82;6.13;;;;;;;;;;5093973;28;20028;-67
2022/06/29 02:54:40;;;;;;;10.30;5.68;;;;;;;;;;5095129;28;20024;-67
2022/06/29 02:57:06;;;;;;;16.80;5.65;;;;;;;;;;5095225;28;20071;-66
2022/06/29 02:59:31;;;;;;;10.82;5.50;;;;;;;;;;5094841;28;20020;-67
2022/06/29 03:01:57;;;;;;;7.70;4.95;;;;;;;;;;5095073;28;20027;-67
2022/06/29 03:04:22;;;;;;;12.05;5.18;;;;;;;;;;5094906;28;20488;-67
2022/06/29 03:06:48;;;;;;;9.10;5.18;;;;;;;;;;5094953;28;20024;-68
2022/06/29 03:09:13;;;;;;;10.00;5.53;;;;;;;;;;5094726;28;20028;-66
2022/06/29 03:11:39;;;;;;;11.25;5.50;;;;;;;;;;5094896;28;20111;-68
2022/06/29 03:14:04;;;;;;;7.90;5.25;;;;;;;;;;5094680;28;20047;-65
2022/06/29 03:16:30;;;;;;;8.77;4.70;;;;;;;;;;5094760;28;20082;-65
2022/06/29 03:18:56;;;;;;;7.95;4.63;;;;;;;;;;5094510;28;20373;-65
2022/06/29 03:21:21;;;;;;;8.95;4.53;;;;;;;;;;5094665;28;20063;-62
2022/06/29 03:23:47;;;;;;;10.77;5.15;;;;;;;;;;5094279;28;20043;-64
2022/06/29 03:26:12;;;;;;;10.00;4.78;;;;;;;;;;5094320;28;20065;-65
2022/06/29 03:28:38;;;;;;;10.75;5.20;;;;;;;;;;5094529;28;20107;-65
2022/06/29 03:31:04;;;;;;;9.18;4.88;;;;;;;;;;5094554;28;20049;-65
2022/06/29 03:33:30;;;;;;;8.80;4.45;;;;;;;;;;5094334;28;20111;-65
2022/06/29 03:35:56;;;;;;;8.23;4.60;;;;;;;;;;5094400;28;20111;-64
2022/06/29 03:38:21;;;;;;;9.60;4.60;;;;;;;;;;5094344;28;20086;-66
2022/06/29 03:40:47;;;;;;;9.10;4.72;;;;;;;;;;5094141;28;20028;-66
2022/06/29 03:43:13;;;;;;;15.35;5.75;;;;;;;;;;5093393;28;20107;-66
2022/06/29 03:45:38;;;;;;;12.15;5.03;;;;;;;;;;5094184;28;20028;-67
2022/06/29 03:48:04;;;;;;;11.95;4.82;;;;;;;;;;5094124;28;20028;-66
2022/06/29 03:50:30;;;;;;;17.13;4.65;;;;;;;;;;5094129;28;20020;-67
2022/06/29 03:52:56;;;;;;;14.45;5.40;;;;;;;;;;5094002;28;20450;-66
2022/06/29 03:55:21;;;;;;;11.50;4.10;;;;;;;;;;5093924;28;20157;-64
2022/06/29 03:57:47;;;;;;;10.40;4.43;;;;;;;;;;5093972;28;20020;-64
2022/06/29 04:00:13;;;;;;;8.88;4.07;;;;;;;;;;5092646;28;20069;-64
2022/06/29 04:02:39;;;;;;;10.02;4.97;;;;;;;;;;5093757;28;20032;-64
2022/06/29 04:05:05;;;;;;;10.07;4.30;;;;;;;;;;5093822;28;20032;-64
2022/06/29 04:07:31;;;;;;;9.63;4.30;;;;;;;;;;5093618;28;20042;-65
2022/06/29 04:09:59;;;;;;;10.60;4.47;;;;;;;;;;5093290;28;20032;-65
2022/06/29 04:12:34;;;;;;;8.43;4.72;;;;;;;;;;5093683;28;20111;-66
2022/06/29 04:15:01;;;;;;;7.20;4.40;;;;;;;;;;5093811;28;20077;-66
2022/06/29 04:17:26;;;;;;;9.05;5.03;;;;;;;;;;5093429;28;20035;-65
2022/06/29 04:19:52;;;;;;;8.48;5.30;;;;;;;;;;5093430;28;20115;-63
2022/06/29 04:22:18;;;;;;;7.30;4.57;;;;;;;;;;5093469;28;20380;-65
2022/06/29 04:24:44;;;;;;;7.25;4.82;;;;;;;;;;5093083;28;20403;-65
2022/06/29 04:27:10;;;;;;;8.77;5.80;;;;;;;;;;5093546;28;20031;-65
2022/06/29 04:29:37;;;;;;;7.35;5.20;;;;;;;;;;5093398;28;20139;-64
2022/06/29 04:32:03;;;;;;;7.53;5.03;;;;;;;;;;5093391;28;20067;-66
2022/06/29 04:34:29;;;;;;;16.13;5.43;;;;;;;;;;5093314;28;20036;-64
2022/06/29 04:36:54;;;;;;;8.23;5.30;;;;;;;;;;5093372;28;20032;-64
2022/06/29 04:39:20;;;;;;;10.80;5.22;;;;;;;;;;5093227;28;20089;-63
2022/06/29 04:41:47;;;;;;;10.80;5.07;;;;;;;;;;5093254;28;20024;-65
2022/06/29 04:44:13;;;;;;;10.10;5.35;;;;;;;;;;5092913;28;20445;-64
2022/06/29 04:46:38;;;;;;;9.32;4.68;;;;;;;;;;5093112;28;20038;-64
2022/06/29 04:49:04;;;;;;;9.35;4.57;;;;;;;;;;5092990;28;20036;-65
2022/06/29 04:51:31;;;;;;;11.32;4.47;;;;;;;;;;5092967;28;20024;-64
2022/06/29 04:53:58;;;;;;;11.93;4.93;;;;;;;;;;5092631;28;20035;-65
2022/06/29 04:56:29;;;;;;;9.00;4.53;;;;;;;;;;5092967;28;20472;-65
2022/06/29 04:58:56;;;;;;;8.85;4.22;;;;;;;;;;5093035;28;20028;-64
2022/06/29 05:01:22;;;;;;;6.63;4.30;;;;;;;;;;5092921;28;20050;-64
2022/06/29 05:03:48;;;;;;;8.38;4.38;;;;;;;;;;5092794;28;20024;-64
2022/06/29 05:06:14;;;;;;;11.77;5.10;;;;;;;;;;5092735;28;20449;-64
2022/06/29 05:08:39;;;;;;;13.23;5.43;;;;;;;;;;5092539;28;20024;-65
2022/06/29 05:11:05;;;;;;;10.10;4.78;;;;;;;;;;5092796;28;20024;-65
2022/06/29 05:13:31;;;;;;;9.73;4.88;;;;;;;;;;5092836;28;20077;-65
2022/06/29 05:15:56;;;;;;;10.35;4.60;;;;;;;;;;5092672;28;20107;-65
2022/06/29 05:18:22;;;;;;;8.07;4.50;;;;;;;;;;5092589;28;20115;-66
2022/06/29 05:20:47;;;;;;;7.70;4.63;;;;;;;;;;5092566;28;20435;-65
2022/06/29 05:23:13;;;;;;;7.05;4.15;;;;;;;;;;5092490;28;20408;-64
2022/06/29 05:25:39;;;;;;;5.85;4.10;;;;;;;;;;5092569;28;20044;-65
2022/06/29 05:28:05;;;;;;;8.05;3.80;;;;;;;;;;5092248;28;20032;-64
2022/06/29 05:30:31;;;;;;;6.85;3.67;;;;;;;;;;5092623;28;20056;-62
2022/06/29 05:32:57;;;;;;;8.68;4.03;;;;;;;;;;5092418;28;20048;-65
2022/06/29 05:35:22;;;;;;;5.25;2.83;;;;;;;;;;5092500;28;20024;-65
2022/06/29 05:37:48;;;;;;;11.38;3.30;;;;;;;;;;5092406;28;20028;-67
2022/06/29 05:40:13;;;;;;;7.30;2.90;;;;;;;;;;5092490;28;20484;-64
2022/06/29 05:42:38;;;;;;;5.53;2.78;;;;;;;;;;5092501;28;20103;-65
2022/06/29 05:45:04;;;;;;;5.65;2.55;;;;;;;;;;5092683;28;20024;-65
2022/06/29 05:47:30;;;;;;;5.50;2.53;;;;;;;;;;5092430;28;20081;-66
2022/06/29 05:50:00;;;;;;;5.35;2.55;;;;;;;;;;5092409;28;20024;-66
2022/06/29 05:52:26;;;;;;;8.95;2.80;;;;;;;;;;5092068;28;20035;-64
2022/06/29 05:54:52;;;;;;;8.13;2.78;;;;;;;;;;5092232;28;20107;-65
2022/06/29 05:57:19;;;;;;;3.83;2.40;;;;;;;;;;5092366;28;20102;-64
2022/06/29 05:59:48;;;;;;;4.80;2.42;;;;;;;;;;5092337;28;20070;-64
2022/06/29 06:02:14;;;;;;;6.70;2.30;;;;;;;;;;5091401;28;20513;-61
2022/06/29 06:04:40;;;;;;;5.65;2.25;;;;;;;;;;5092103;28;20036;-63
2022/06/29 06:07:05;;;;;;;6.43;2.30;;;;;;;;;;5095758;28;20074;-64
2022/06/29 06:09:32;;;;;;;4.93;1.90;;;;;;;;;;5094679;28;20039;-64
2022/06/29 06:11:58;;;;;;;4.25;2.08;;;;;;;;;;5095965;28;20502;-64
2022/06/29 06:14:24;;;;;;;4.40;2.10;;;;;;;;;;5096026;28;20028;-64
2022/06/29 06:16:50;;;;;;;6.00;2.40;;;;;;;;;;5095836;28;20032;-63
2022/06/29 06:19:16;;;;;;;4.78;2.20;;;;;;;;;;5095991;28;20036;-63
2022/06/29 06:21:42;;;;;;;5.38;2.50;;;;;;;;;;5095668;28;20020;-65
2022/06/29 06:24:07;;;;;;;5.00;2.65;;;;;;;;;;5095509;28;20059;-64
2022/06/29 06:26:33;;;;;;;6.20;2.50;;;;;;;;;;5095947;28;20427;-61
2022/06/29 06:28:59;;;;;;;5.72;2.20;;;;;;;;;;5095601;28;20024;-64
2022/06/29 06:31:25;;;;;;;4.15;2.15;;;;;;;;;;5096101;28;20469;-65
2022/06/29 06:33:51;;;;;;;7.20;1.90;;;;;;;;;;5095628;28;20032;-64
2022/06/29 06:36:17;;;;;;;4.90;1.80;;;;;;;;;;5095382;28;20030;-64
2022/06/29 06:38:42;;;;;;;6.97;1.80;;;;;;;;;;5095626;28;20465;-65
2022/06/29 06:41:41;;;;;;;6.22;1.80;;;;;;;;;;5091629;28;20388;-64
2022/06/29 06:44:00;;;;;;;6.93;2.10;;;;;;;;;;5092917;28;20032;-64
2022/06/29 06:46:26;;;;;;;4.03;1.80;;;;;;;;;;5095309;28;20035;-64
2022/06/29 06:48:52;;;;;;;5.07;2.00;;;;;;;;;;5095181;28;20471;-65
2022/06/29 06:51:19;;;;;;;4.05;1.65;;;;;;;;;;5094942;28;20111;-65
2022/06/29 06:53:46;;;;;;;4.10;1.58;;;;;;;;;;5094928;28;20028;-67
2022/06/29 06:56:12;;;;;;;5.45;1.92;;;;;;;;;;5095095;28;20035;-66
2022/06/29 06:58:38;;;;;;;5.40;2.00;;;;;;;;;;5095107;28;20032;-66
2022/06/29 07:01:04;;;;;;;4.82;1.70;;;;;;;;;;5095104;28;20020;-66
2022/06/29 07:03:31;;;;;;;6.13;2.03;;;;;;;;;;5094906;28;20103;-67
2022/06/29 07:05:59;;;;;;;5.45;1.83;;;;;;;;;;5088861;28;20481;-66
2022/06/29 07:08:24;;;;;;;7.03;2.22;;;;;;;;;;5089636;28;20020;-67
2022/06/29 07:10:50;;;;;;;5.13;1.90;;;;;;;;;;5094589;28;20028;-66
2022/06/29 07:13:16;;;;;;;7.25;1.83;;;;;;;;;;5094454;28;20380;-66
2022/06/29 07:15:41;;;;;;;6.50;2.10;;;;;;;;;;5094516;28;20026;-65
2022/06/29 07:18:07;;;;;;;3.85;1.75;;;;;;;;;;5093075;28;20507;-66
2022/06/29 07:20:32;;;;;;;3.80;1.77;;;;;;;;;;5094056;28;20020;-66
2022/06/29 07:22:58;;;;;;;2.47;1.65;;;;;;;;;;5094243;28;20024;-66
2022/06/29 07:25:23;;;;;;;6.20;1.80;;;;;;;;;;5092861;28;20068;-66
2022/06/29 07:27:49;;;;;;;5.80;2.00;;;;;;;;;;5094056;28;20032;-66
2022/06/29 07:30:15;;;;;;;6.63;2.15;;;;;;;;;;5094137;28;20103;-66
2022/06/29 07:32:40;;;;;;;8.10;2.25;;;;;;;;;;5093796;28;20032;-66
2022/06/29 07:35:06;;;;;;;4.53;2.10;;;;;;;;;;5094263;28;20028;-66
2022/06/29 07:37:31;;;;;;;4.03;1.90;;;;;;;;;;5094176;28;20524;-67
2022/06/29 07:39:57;;;;;;;4.78;1.80;;;;;;;;;;5093867;28;20028;-66
2022/06/29 07:42:22;;;;;;;8.43;1.95;;;;;;;;;;5094042;28;20374;-66
2022/06/29 07:44:48;;;;;;;6.93;2.10;;;;;;;;;;5094005;28;20057;-66
2022/06/29 07:47:13;;;;;;;3.20;1.90;;;;;;;;;;5092241;28;20465;-66
2022/06/29 07:49:39;;;;;;;4.30;2.15;;;;;;;;;;5093754;28;20024;-67
2022/06/29 07:52:04;;;;;;;5.40;1.60;;;;;;;;;;5093778;28;20028;-67
2022/06/29 07:54:30;;;;;;;4.63;2.10;;;;;;;;;;5093512;28;20024;-65
2022/06/29 07:56:55;;;;;;;4.00;1.65;;;;;;;;;;5093800;28;20050;-66
2022/06/29 07:59:21;;;;;;;3.03;1.30;;;;;;;;;;5093849;28;20105;-66
2022/06/29 08:01:47;;;;;;;4.13;1.40;;;;;;;;;;5093562;28;20024;-64
2022/06/29 08:04:12;;;;;;;4.97;1.50;;;;;;;;;;5093823;28;20645;-66
2022/06/29 08:06:38;;;;;;;3.15;1.58;;;;;;;;;;5093369;28;20435;-61
2022/06/29 08:09:05;;;;;;;6.47;1.55;;;;;;;;;;5093414;28;20028;-64
2022/06/29 08:11:30;;;;;;;3.63;1.70;;;;;;;;;;5093408;28;20051;-61
2022/06/29 08:13:56;;;;;;;3.90;1.70;;;;;;;;;;5093307;28;20499;-62
2022/06/29 08:16:21;;;;;;;4.07;1.52;;;;;;;;;;5093232;28;20063;-62
2022/06/29 08:18:47;;;;;;;4.10;1.45;;;;;;;;;;5093086;28;20032;-65
2022/06/29 08:21:12;;;;;;;3.72;1.52;;;;;;;;;;5093290;28;20020;-60
2022/06/29 08:23:38;;;;;;;4.05;1.35;;;;;;;;;;5092956;28;20120;-62
2022/06/29 08:26:03;;;;;;;3.63;1.70;;;;;;;;;;5093278;28;20036;-65
2022/06/29 08:28:29;;;;;;;4.10;1.45;;;;;;;;;;5092534;28;20083;-64
2022/06/29 08:30:54;;;;;;;7.75;1.50;;;;;;;;;;5092978;28;20028;-62
2022/06/29 08:33:21;;;;;;;5.82;1.75;;;;;;;;;;5093061;28;20064;-63
2022/06/29 08:35:48;;;;;;;3.72;1.52;;;;;;;;;;5093178;28;20035;-63
2022/06/29 08:38:14;;;;;;;5.50;1.63;;;;;;;;;;5092973;28;20511;-64
2022/06/29 08:40:47;;;;;;;5.80;1.67;;;;;;;;;;5092878;28;20039;-62
2022/06/29 08:43:15;;;;;;;6.25;1.63;;;;;;;;;;5092900;28;20131;-63
2022/06/29 08:45:44;;;;;;;6.22;1.60;;;;;;;;;;5092744;28;20027;-66
2022/06/29 08:48:11;;;;;;;5.20;1.73;;;;;;;;;;5092729;28;20447;-65
2022/06/29 08:50:41;;;;;;;3.80;1.60;;;;;;;;;;5092763;28;20032;-64
2022/06/29 08:53:09;;;;;;;4.28;1.55;;;;;;;;;;5092782;28;20024;-66
2022/06/29 08:55:38;;;;;;;3.90;1.70;;;;;;;;;;5092639;28;20062;-65
2022/06/29 08:58:06;;;;;;;5.25;1.60;;;;;;;;;;5092473;28;20469;-64
2022/06/29 09:00:36;;;;;;;3.00;1.52;;;;;;;;;;5092353;28;20028;-64
2022/06/29 09:03:01;;;;;;;;;;;;;;;;;;5093074;28;20034;-66
2022/06/29 09:05:27;;;;;;;5.45;1.50;;;;;;;;;;5092630;28;19998;-63
2022/06/29 09:07:53;;;;;;;6.07;2.50;;;;;;;;;;5092370;28;20020;-64
2022/06/29 09:10:19;;;;;;;8.35;1.60;;;;;;;;;;5092573;28;20028;-64
2022/06/29 09:12:52;;;;;;;3.85;1.40;;;;;;;;;;5092444;28;20111;-63
2022/06/29 09:15:33;;;;;;;2.13;1.42;;;;;;;;;;5092249;28;20107;-64
2022/06/29 09:18:01;;;;;;;6.43;1.63;;;;;;;;;;5081546;28;20036;-64
2022/06/29 09:20:40;;;;;;;4.97;1.40;;;;;;;;;;5072406;28;20107;-64
2022/06/29 09:23:08;;;;;;;;;;;;;;;;;;5072722;28;20028;-64
2022/06/29 09:25:33;;;;;;;6.93;1.75;;;;;;;;;;5072091;28;20006;-64
2022/06/29 09:27:59;;;;;;;6.47;1.50;;;;;;;;;;5071843;28;20107;-64
2022/06/29 09:30:26;;;;;;;6.00;1.75;;;;;;;;;;5071987;28;20028;-64
2022/06/29 09:33:06;;;;;;;3.58;1.38;;;;;;;;;;5072130;28;20115;-62
2022/06/29 09:35:33;;;;;;;3.72;1.60;;;;;;;;;;5072191;28;20387;-61
2022/06/29 09:38:17;;;;;;;4.57;1.70;;;;;;;;;;5072060;28;20116;-61
2022/06/29 09:41:14;;;;;;;5.72;1.70;;;;;;;;;;5073567;28;20096;-61
2022/06/29 09:43:44;;;;;;;4.35;1.42;;;;;;;;;;5066991;28;20033;-61
2022/06/29 09:46:12;;;;;;;5.35;1.38;;;;;;;;;;5076069;28;20024;-62
2022/06/29 09:48:39;;;;;;;5.40;1.85;;;;;;;;;;5075559;28;20074;-62
2022/06/29 09:51:30;;;;;;;8.82;1.70;;;;;;;;;;5075957;28;20030;-62
2022/06/29 09:54:01;;;;;;;4.47;1.40;;;;;;;;;;5075622;28;20055;-65
2022/06/29 09:56:29;;;;;;;5.70;1.60;;;;;;;;;;5075929;28;20553;-65
2022/06/29 09:58:58;;;;;;;8.85;1.50;;;;;;;;;;5075621;28;20390;-62
2022/06/29 10:04:09;;;;;;;3.33;1.30;;;;;;;;;;5076050;28;20413;-63
2022/06/29 10:06:35;;;;;;;3.08;1.40;;;;;;;;;;5075386;28;20131;-63
2022/06/29 10:09:03;;;;;;;6.55;1.63;;;;;;;;;;5075563;28;20441;-66
2022/06/29 10:15:13;;;;;;;3.80;1.52;;;;;;;;;;5092894;28;20105;-65
2022/06/29 10:18:06;;;;;;;3.33;1.73;;;;;;;;;;5095411;28;20177;-66
2022/06/29 10:20:48;;;;;;;3.92;1.52;;;;;;;;;;5095629;28;20036;-66
2022/06/29 10:23:52;;;;;;;4.13;1.60;;;;;;;;;;5095464;28;20024;-67
2022/06/29 10:26:34;;;;;;;3.05;1.20;;;;;;;;;;5095663;28;20078;-66
2022/06/29 10:29:06;;;;;;;3.53;1.58;;;;;;;;;;5095205;28;20085;-67
2022/06/29 10:31:50;;;;;;;6.57;1.63;;;;;;;;;;5095650;28;20043;-67
2022/06/29 10:37:16;;;;;;;4.45;1.30;;;;;;;;;;5088750;28;20037;-68
2022/06/29 10:39:44;;;;;;;3.78;1.35;;;;;;;;;;5095373;28;20039;-67
2022/06/29 10:45:16;;;;;;;6.38;1.40;;;;;;;;;;5095326;28;20128;-67
2022/06/29 10:48:07;;;;;;;3.28;1.70;;;;;;;;;;5095227;28;20492;-67
2022/06/29 10:50:34;;;;;;;3.90;1.20;;;;;;;;;;5094962;28;20420;-66
2022/06/29 10:53:14;;;;;;;3.85;1.30;;;;;;;;;;5094723;28;20534;-67
2022/06/29 10:55:50;;;;;;;;;;;;;;;;;;5095291;28;20074;-64
2022/06/29 10:58:17;;;;;;;3.60;1.42;;;;;;;;;;5095111;28;19916;-67
2022/06/29 11:00:52;;;;;;;2.85;1.45;;;;;;;;;;5095062;28;20032;-67
2022/06/29 11:03:21;;;;;;;4.68;1.88;;;;;;;;;;5094794;28;20455;-67
2022/06/29 11:14:03;;;;;;;2.45;1.20;;;;;;;;;;5094999;28;20039;-67
2022/06/29 11:16:39;;;;;;;3.38;1.20;;;;;;;;;;5094628;28;20393;-66
2022/06/29 11:19:05;;;;;;;4.47;1.40;;;;;;;;;;5094582;28;20035;-67
2022/06/29 11:21:30;;;;;;;4.45;1.52;;;;;;;;;;5094555;28;20028;-67
2022/06/29 11:23:58;;;;;;;4.35;1.52;;;;;;;;;;5094186;28;20059;-66
2022/06/29 11:26:24;;;;;;;4.07;1.35;;;;;;;;;;5094373;28;20020;-67
2022/06/29 11:28:50;;;;;;;3.13;1.10;;;;;;;;;;5094055;28;20028;-66
2022/06/29 11:31:17;;;;;;;2.35;1.17;;;;;;;;;;5094194;28;20020;-66
2022/06/29 11:33:53;;;;;;;4.38;1.10;;;;;;;;;;5094155;28;20032;-67
2022/06/29 11:36:22;;;;;;;3.78;1.50;;;;;;;;;;5094222;28;20024;-66
2022/06/29 11:38:51;;;;;;;6.35;1.33;;;;;;;;;;5094138;28;20020;-66
2022/06/29 11:41:20;;;;;;;3.60;1.00;;;;;;;;;;5093727;28;20063;-67
2022/06/29 11:44:06;;;;;;;3.85;1.35;;;;;;;;;;5094114;28;20071;-66
2022/06/29 11:46:38;;;;;;;3.35;1.35;;;;;;;;;;5093979;28;20028;-67
2022/06/29 11:51:55;;;;;;;2.63;1.23;;;;;;;;;;5094075;28;20058;-68
2022/06/29 11:55:00;;;;;;;4.78;1.30;;;;;;;;;;5093675;28;20490;-66
2022/06/29 11:57:26;;;;;;;2.88;1.25;;;;;;;;;;5031350;28;20033;-67
2022/06/29 11:59:52;;;;;;;4.10;1.30;;;;;;;;;;5031102;28;20547;-67
2022/06/29 12:02:18;;;;;;;2.38;1.25;;;;;;;;;;5030998;28;20037;-67
2022/06/29 12:04:45;;;;;;;2.15;1.30;;;;;;;;;;5030652;28;20033;-68
2022/06/29 12:07:12;;;;;;;2.30;1.05;;;;;;;;;;5030921;28;20454;-67
2022/06/29 12:09:40;;;;;;;3.90;1.42;;;;;;;;;;5030900;28;20095;-67
2022/06/29 12:12:07;;;;;;;1.90;1.08;;;;;;;;;;5031153;28;20555;-64
2022/06/29 12:14:34;;;;;;;2.67;1.17;;;;;;;;;;5031133;28;20395;-67
2022/06/29 12:17:00;;;;;;;4.20;1.40;;;;;;;;;;5028444;28;20029;-67
2022/06/29 12:19:26;;;;;;;4.53;1.40;;;;;;;;;;5011276;28;20034;-67
2022/06/29 12:21:52;;;;;;;2.60;1.20;;;;;;;;;;5011141;28;20110;-68
2022/06/29 12:24:18;;;;;;;1.92;1.10;;;;;;;;;;5010932;28;20045;-66
2022/06/29 12:26:45;;;;;;;3.72;1.10;;;;;;;;;;5011222;28;20054;-67
2022/06/29 12:29:13;;;;;;;3.45;1.20;;;;;;;;;;5011348;28;20221;-66
2022/06/29 12:31:40;;;;;;;3.60;1.30;;;;;;;;;;5050240;28;20036;-67
2022/06/29 12:34:07;;;;;;;5.75;1.30;;;;;;;;;;5072663;28;20020;-67
2022/06/29 12:36:32;;;;;;;6.25;1.20;;;;;;;;;;5072785;28;20378;-67
2022/06/29 12:38:58;;;;;;;2.20;1.20;;;;;;;;;;5072389;28;20024;-67
2022/06/29 12:41:24;;;;;;;3.63;1.52;;;;;;;;;;5072611;28;20016;-67
2022/06/29 12:43:49;;;;;;;2.90;1.33;;;;;;;;;;5072725;28;20595;-67
2022/06/29 12:46:15;;;;;;;3.15;1.20;;;;;;;;;;5072769;28;20013;-67
2022/06/29 12:48:41;;;;;;;4.68;1.50;;;;;;;;;;5072577;28;20116;-66
2022/06/29 12:51:06;;;;;;;2.92;1.40;;;;;;;;;;5072796;28;20102;-67
2022/06/29 12:53:32;;;;;;;4.70;1.30;;;;;;;;;;5072155;28;20114;-67
2022/06/29 12:55:59;;;;;;;3.22;1.10;;;;;;;;;;5072595;28;20477;-67
2022/06/29 12:58:25;;;;;;;2.17;1.02;;;;;;;;;;5072321;28;20033;-67
2022/06/29 13:00:51;;;;;;;3.03;1.27;;;;;;;;;;5072514;28;20103;-67
2022/06/29 13:03:17;;;;;;;3.83;1.05;;;;;;;;;;5072256;28;20475;-66
2022/06/29 13:05:43;;;;;;;2.83;1.30;;;;;;;;;;5072304;28;20024;-67
2022/06/29 13:08:10;;;;;;;1.40;1.00;;;;;;;;;;5072148;28;20108;-67
2022/06/29 13:10:36;;;;;;;2.53;1.30;;;;;;;;;;5072356;28;20029;-66
2022/06/29 13:13:03;;;;;;;3.70;1.10;;;;;;;;;;5072483;28;20028;-67
2022/06/29 13:15:29;;;;;;;4.72;1.20;;;;;;;;;;5072270;28;20052;-67
2022/06/29 13:17:54;;;;;;;4.35;1.30;;;;;;;;;;5081954;28;20380;-67
2022/06/29 13:20:20;;;;;;;2.58;1.20;;;;;;;;;;5092672;28;20111;-67
2022/06/29 13:22:46;;;;;;;2.60;1.13;;;;;;;;;;5092283;28;20421;-67
2022/06/29 13:25:12;;;;;;;4.32;1.30;;;;;;;;;;5092198;28;20565;-67
2022/06/29 13:27:37;;;;;;;3.05;1.40;;;;;;;;;;5091004;28;20032;-67
2022/06/29 13:30:05;;;;;;;2.45;1.10;;;;;;;;;;5092197;28;20084;-66
2022/06/29 13:32:30;;;;;;;2.00;1.20;;;;;;;;;;5092435;28;20028;-66
2022/06/29 13:34:56;;;;;;;2.47;1.38;;;;;;;;;;5092411;28;20541;-66
2022/06/29 13:37:21;;;;;;;2.42;1.20;;;;;;;;;;5092077;28;20162;-67
2022/06/29 13:39:47;;;;;;;4.35;1.30;;;;;;;;;;5092253;28;20106;-67
2022/06/29 13:42:13;;;;;;;4.10;1.60;;;;;;;;;;5092236;28;20043;-65
2022/06/29 13:44:38;;;;;;;4.50;1.42;;;;;;;;;;5092391;28;20028;-67
2022/06/29 13:47:04;;;;;;;3.50;1.52;;;;;;;;;;5092335;28;20016;-66
2022/06/29 13:49:29;;;;;;;4.13;1.25;;;;;;;;;;5091989;28;20042;-66
2022/06/29 13:51:56;;;;;;;4.30;1.50;;;;;;;;;;5091724;28;20032;-67
2022/06/29 13:54:21;;;;;;;4.00;1.90;;;;;;;;;;5092276;28;20062;-67
2022/06/29 13:56:47;;;;;;;5.20;1.38;;;;;;;;;;5092109;28;20032;-67
2022/06/29 13:59:12;;;;;;;6.20;3.30;;;;;;;;;;5092182;28;20020;-67
2022/06/29 14:01:38;;;;;;;3.28;1.38;;;;;;;;;;5092221;28;20024;-67
2022/06/29 14:04:04;;;;;;;6.13;1.40;;;;;;;;;;5092076;28;20393;-67
2022/06/29 14:06:30;;;;;;;11.65;2.33;;;;;;;;;;5092059;28;20042;-67
2022/06/29 14:08:55;;;;;;;7.95;2.03;;;;;;;;;;5092112;28;20036;-66
2022/06/29 14:11:21;;;;;;;5.05;1.70;;;;;;;;;;5091977;28;20021;-66
2022/06/29 14:13:47;;;;;;;4.15;1.50;;;;;;;;;;5091622;28;20061;-65
2022/06/29 14:16:12;;;;;;;4.97;1.80;;;;;;;;;;5092123;28;20099;-66
2022/06/29 14:18:38;;;;;;;6.30;2.47;;;;;;;;;;5091810;28;20028;-67
2022/06/29 14:21:04;;;;;;;5.15;2.20;;;;;;;;;;5091725;28;20026;-68
2022/06/29 14:23:30;;;;;;;7.93;2.35;;;;;;;;;;5091745;28;20140;-66
2022/06/29 14:25:56;;;;;;;8.10;2.60;;;;;;;;;;5091996;28;20065;-66
2022/06/29 14:28:22;;;;;;;6.43;2.50;;;;;;;;;;5095459;28;20030;-67
2022/06/29 14:30:48;;;;;;;8.10;2.92;;;;;;;;;;5095557;28;20032;-64
2022/06/29 14:33:14;;;;;;;10.23;3.25;;;;;;;;;;5094996;28;20024;-64
2022/06/29 14:35:39;;;;;;;8.05;2.92;;;;;;;;;;5095409;28;20028;-66
2022/06/29 14:38:05;;;;;;;7.75;3.72;;;;;;;;;;5095379;28;20450;-66
2022/06/29 14:40:32;;;;;;;7.78;3.25;;;;;;;;;;5095316;28;20020;-67
2022/06/29 14:42:57;;;;;;;9.27;3.67;;;;;;;;;;5095150;28;20092;-66
2022/06/29 14:45:23;;;;;;;6.43;2.90;;;;;;;;;;5095091;28;20477;-67
2022/06/29 14:47:48;;;;;;;6.65;2.92;;;;;;;;;;5094754;28;20024;-66
2022/06/29 14:50:14;;;;;;;10.25;3.50;;;;;;;;;;5095034;28;20032;-67
2022/06/29 14:52:41;;;;;;;7.63;2.97;;;;;;;;;;5095026;28;20016;-68
2022/06/29 14:55:08;;;;;;;5.30;3.15;;;;;;;;;;5095165;28;20227;-67
2022/06/29 14:57:34;;;;;;;5.43;2.75;;;;;;;;;;5095158;28;20030;-66
2022/06/29 15:00:00;;;;;;;11.63;3.00;;;;;;;;;;5093504;28;20113;-67
2022/06/29 15:02:26;;;;;;;7.78;3.00;;;;;;;;;;5094835;28;20421;-66
2022/06/29 15:04:51;;;;;;;5.57;2.70;;;;;;;;;;5094778;28;20027;-65
2022/06/29 15:07:17;;;;;;;5.85;2.75;;;;;;;;;;5094573;28;20016;-65
2022/06/29 15:09:43;;;;;;;12.52;3.40;;;;;;;;;;5094499;28;20020;-67